sensor_id;sensor_type;location;lat;lon;timestamp;P1;durP1;ratioP1;P2;durP2;ratioP2
36457;SDS011;22480;50.546;12.292;2023-02-20T00:00:04;16.15;;;10.70;;
36457;SDS011;22480;50.546;12.292;2023-02-20T00:02:32;17.30;;;11.05;;
36457;SDS011;22480;50.546;12.292;2023-02-20T00:04:57;16.05;;;10.85;;
36457;SDS011;22480;50.546;12.292;2023-02-20T00:07:23;17.65;;;10.88;;
36457;SDS011;22480;50.546;12.292;2023-02-20T00:09:49;15.45;;;9.55;;
36457;SDS011;22480;50.546;12.292;2023-02-20T00:12:14;17.77;;;9.82;;
36457;SDS011;22480;50.546;12.292;2023-02-20T00:14:40;15.30;;;9.93;;
36457;SDS011;22480;50.546;12.292;2023-02-20T00:17:06;19.98;;;11.50;;
36457;SDS011;22480;50.546;12.292;2023-02-20T00:19:31;16.80;;;9.85;;
36457;SDS011;22480;50.546;12.292;2023-02-20T00:21:57;18.80;;;10.57;;
36457;SDS011;22480;50.546;12.292;2023-02-20T00:24:23;17.48;;;11.75;;
36457;SDS011;22480;50.546;12.292;2023-02-20T00:26:49;17.42;;;11.07;;
36457;SDS011;22480;50.546;12.292;2023-02-20T00:29:17;20.83;;;10.90;;
36457;SDS011;22480;50.546;12.292;2023-02-20T00:31:49;20.95;;;12.27;;
36457;SDS011;22480;50.546;12.292;2023-02-20T00:34:16;19.73;;;11.60;;
36457;SDS011;22480;50.546;12.292;2023-02-20T00:36:43;21.02;;;11.55;;
36457;SDS011;22480;50.546;12.292;2023-02-20T00:39:09;21.58;;;12.32;;
36457;SDS011;22480;50.546;12.292;2023-02-20T00:41:34;22.35;;;12.82;;
36457;SDS011;22480;50.546;12.292;2023-02-20T00:44:00;23.85;;;12.45;;
36457;SDS011;22480;50.546;12.292;2023-02-20T00:46:26;19.85;;;11.93;;
36457;SDS011;22480;50.546;12.292;2023-02-20T00:48:51;23.40;;;12.73;;
36457;SDS011;22480;50.546;12.292;2023-02-20T00:51:36;21.98;;;12.05;;
36457;SDS011;22480;50.546;12.292;2023-02-20T00:54:01;25.58;;;12.55;;
36457;SDS011;22480;50.546;12.292;2023-02-20T00:56:28;23.70;;;11.48;;
36457;SDS011;22480;50.546;12.292;2023-02-20T00:58:55;24.50;;;13.80;;
36457;SDS011;22480;50.546;12.292;2023-02-20T01:01:21;25.27;;;12.63;;
36457;SDS011;22480;50.546;12.292;2023-02-20T01:03:46;27.08;;;13.30;;
36457;SDS011;22480;50.546;12.292;2023-02-20T01:06:13;23.35;;;11.80;;
36457;SDS011;22480;50.546;12.292;2023-02-20T01:08:39;23.08;;;11.93;;
36457;SDS011;22480;50.546;12.292;2023-02-20T01:11:04;21.27;;;11.02;;
36457;SDS011;22480;50.546;12.292;2023-02-20T01:13:30;16.42;;;9.52;;
36457;SDS011;22480;50.546;12.292;2023-02-20T01:15:56;14.82;;;8.05;;
36457;SDS011;22480;50.546;12.292;2023-02-20T01:18:22;14.10;;;8.20;;
36457;SDS011;22480;50.546;12.292;2023-02-20T01:20:50;13.80;;;6.95;;
36457;SDS011;22480;50.546;12.292;2023-02-20T01:23:16;12.82;;;7.05;;
36457;SDS011;22480;50.546;12.292;2023-02-20T01:25:41;12.07;;;6.95;;
36457;SDS011;22480;50.546;12.292;2023-02-20T01:28:08;14.52;;;7.45;;
36457;SDS011;22480;50.546;12.292;2023-02-20T01:30:34;13.65;;;7.47;;
36457;SDS011;22480;50.546;12.292;2023-02-20T01:33:01;15.85;;;7.47;;
36457;SDS011;22480;50.546;12.292;2023-02-20T01:35:28;16.73;;;8.45;;
36457;SDS011;22480;50.546;12.292;2023-02-20T01:37:56;17.50;;;8.75;;
36457;SDS011;22480;50.546;12.292;2023-02-20T01:40:24;17.10;;;7.90;;
36457;SDS011;22480;50.546;12.292;2023-02-20T01:42:51;17.10;;;8.55;;
36457;SDS011;22480;50.546;12.292;2023-02-20T01:47:48;19.52;;;9.38;;
36457;SDS011;22480;50.546;12.292;2023-02-20T01:50:16;16.38;;;8.88;;
36457;SDS011;22480;50.546;12.292;2023-02-20T01:52:44;18.33;;;9.27;;
36457;SDS011;22480;50.546;12.292;2023-02-20T01:55:19;21.58;;;10.18;;
36457;SDS011;22480;50.546;12.292;2023-02-20T01:58:01;20.85;;;10.05;;
36457;SDS011;22480;50.546;12.292;2023-02-20T02:00:39;22.48;;;9.55;;
36457;SDS011;22480;50.546;12.292;2023-02-20T02:05:32;19.95;;;10.45;;
36457;SDS011;22480;50.546;12.292;2023-02-20T02:08:02;22.58;;;11.23;;
36457;SDS011;22480;50.546;12.292;2023-02-20T02:10:42;21.83;;;11.38;;
36457;SDS011;22480;50.546;12.292;2023-02-20T02:13:15;24.75;;;11.88;;
36457;SDS011;22480;50.546;12.292;2023-02-20T02:15:41;23.42;;;11.82;;
36457;SDS011;22480;50.546;12.292;2023-02-20T02:23:53;25.10;;;11.48;;
36457;SDS011;22480;50.546;12.292;2023-02-20T02:41:26;19.40;;;9.80;;
36457;SDS011;22480;50.546;12.292;2023-02-20T02:44:05;18.52;;;8.27;;
36457;SDS011;22480;50.546;12.292;2023-02-20T02:46:43;16.15;;;8.95;;
36457;SDS011;22480;50.546;12.292;2023-02-20T02:49:18;19.05;;;8.70;;
36457;SDS011;22480;50.546;12.292;2023-02-20T02:51:51;17.15;;;8.07;;
36457;SDS011;22480;50.546;12.292;2023-02-20T02:54:20;17.48;;;8.40;;
36457;SDS011;22480;50.546;12.292;2023-02-20T02:56:52;14.27;;;7.78;;
36457;SDS011;22480;50.546;12.292;2023-02-20T02:59:23;17.77;;;8.27;;
36457;SDS011;22480;50.546;12.292;2023-02-20T03:01:54;19.20;;;7.80;;
36457;SDS011;22480;50.546;12.292;2023-02-20T03:04:25;19.75;;;9.70;;
36457;SDS011;22480;50.546;12.292;2023-02-20T03:06:53;16.92;;;8.10;;
36457;SDS011;22480;50.546;12.292;2023-02-20T03:09:31;16.17;;;8.60;;
36457;SDS011;22480;50.546;12.292;2023-02-20T03:11:59;17.65;;;8.30;;
36457;SDS011;22480;50.546;12.292;2023-02-20T03:14:31;19.50;;;8.98;;
36457;SDS011;22480;50.546;12.292;2023-02-20T03:17:29;19.63;;;8.68;;
36457;SDS011;22480;50.546;12.292;2023-02-20T03:20:05;20.00;;;9.57;;
36457;SDS011;22480;50.546;12.292;2023-02-20T03:22:36;26.35;;;9.85;;
36457;SDS011;22480;50.546;12.292;2023-02-20T03:25:24;22.75;;;12.95;;
36457;SDS011;22480;50.546;12.292;2023-02-20T03:30:29;22.05;;;10.02;;
36457;SDS011;22480;50.546;12.292;2023-02-20T03:33:01;18.77;;;9.77;;
36457;SDS011;22480;50.546;12.292;2023-02-20T03:35:53;18.17;;;9.25;;
36457;SDS011;22480;50.546;12.292;2023-02-20T03:38:40;20.25;;;8.90;;
36457;SDS011;22480;50.546;12.292;2023-02-20T03:41:28;14.75;;;8.48;;
36457;SDS011;22480;50.546;12.292;2023-02-20T03:44:14;18.35;;;8.52;;
36457;SDS011;22480;50.546;12.292;2023-02-20T03:46:42;16.67;;;9.48;;
36457;SDS011;22480;50.546;12.292;2023-02-20T03:49:11;15.63;;;8.18;;
36457;SDS011;22480;50.546;12.292;2023-02-20T03:51:43;14.43;;;7.90;;
36457;SDS011;22480;50.546;12.292;2023-02-20T03:54:25;15.20;;;8.25;;
36457;SDS011;22480;50.546;12.292;2023-02-20T03:56:57;14.98;;;8.68;;
36457;SDS011;22480;50.546;12.292;2023-02-20T03:59:38;15.48;;;7.40;;
36457;SDS011;22480;50.546;12.292;2023-02-20T04:02:24;13.82;;;7.90;;
36457;SDS011;22480;50.546;12.292;2023-02-20T04:04:56;14.90;;;8.43;;
36457;SDS011;22480;50.546;12.292;2023-02-20T04:07:33;13.40;;;8.48;;
36457;SDS011;22480;50.546;12.292;2023-02-20T04:10:05;16.00;;;7.72;;
36457;SDS011;22480;50.546;12.292;2023-02-20T04:12:35;19.08;;;8.70;;
36457;SDS011;22480;50.546;12.292;2023-02-20T04:15:05;15.52;;;8.85;;
36457;SDS011;22480;50.546;12.292;2023-02-20T04:17:34;14.57;;;9.02;;
36457;SDS011;22480;50.546;12.292;2023-02-20T04:20:21;16.75;;;8.90;;
36457;SDS011;22480;50.546;12.292;2023-02-20T04:22:59;17.95;;;8.90;;
36457;SDS011;22480;50.546;12.292;2023-02-20T04:25:35;16.25;;;8.38;;
36457;SDS011;22480;50.546;12.292;2023-02-20T04:28:05;15.65;;;8.48;;
36457;SDS011;22480;50.546;12.292;2023-02-20T04:30:42;16.58;;;9.73;;
36457;SDS011;22480;50.546;12.292;2023-02-20T04:33:12;14.90;;;9.25;;
36457;SDS011;22480;50.546;12.292;2023-02-20T04:35:39;17.75;;;10.57;;
36457;SDS011;22480;50.546;12.292;2023-02-20T04:38:06;16.50;;;9.75;;
36457;SDS011;22480;50.546;12.292;2023-02-20T04:40:33;17.80;;;9.18;;
36457;SDS011;22480;50.546;12.292;2023-02-20T04:42:59;15.88;;;9.73;;
36457;SDS011;22480;50.546;12.292;2023-02-20T04:45:25;20.45;;;11.38;;
36457;SDS011;22480;50.546;12.292;2023-02-20T04:47:50;16.52;;;10.38;;
36457;SDS011;22480;50.546;12.292;2023-02-20T04:50:21;15.05;;;9.10;;
36457;SDS011;22480;50.546;12.292;2023-02-20T04:52:50;13.93;;;8.90;;
36457;SDS011;22480;50.546;12.292;2023-02-20T04:55:16;14.23;;;9.40;;
36457;SDS011;22480;50.546;12.292;2023-02-20T04:57:42;14.77;;;9.48;;
36457;SDS011;22480;50.546;12.292;2023-02-20T05:00:08;14.50;;;9.15;;
36457;SDS011;22480;50.546;12.292;2023-02-20T05:02:36;14.60;;;9.35;;
36457;SDS011;22480;50.546;12.292;2023-02-20T05:05:03;12.68;;;7.97;;
36457;SDS011;22480;50.546;12.292;2023-02-20T05:07:31;17.30;;;10.85;;
36457;SDS011;22480;50.546;12.292;2023-02-20T05:09:56;14.45;;;8.27;;
36457;SDS011;22480;50.546;12.292;2023-02-20T05:12:22;17.17;;;9.52;;
36457;SDS011;22480;50.546;12.292;2023-02-20T05:14:48;17.15;;;9.43;;
36457;SDS011;22480;50.546;12.292;2023-02-20T05:17:13;13.90;;;9.43;;
36457;SDS011;22480;50.546;12.292;2023-02-20T05:19:39;13.88;;;8.98;;
36457;SDS011;22480;50.546;12.292;2023-02-20T05:22:11;14.70;;;9.27;;
36457;SDS011;22480;50.546;12.292;2023-02-20T05:24:43;14.82;;;9.68;;
36457;SDS011;22480;50.546;12.292;2023-02-20T05:27:09;14.90;;;9.32;;
36457;SDS011;22480;50.546;12.292;2023-02-20T05:29:35;14.07;;;9.52;;
36457;SDS011;22480;50.546;12.292;2023-02-20T05:32:01;17.15;;;10.00;;
36457;SDS011;22480;50.546;12.292;2023-02-20T05:34:27;15.77;;;10.27;;
36457;SDS011;22480;50.546;12.292;2023-02-20T05:36:53;15.82;;;9.77;;
36457;SDS011;22480;50.546;12.292;2023-02-20T05:39:21;18.48;;;10.48;;
36457;SDS011;22480;50.546;12.292;2023-02-20T05:41:47;16.48;;;10.50;;
36457;SDS011;22480;50.546;12.292;2023-02-20T05:44:13;19.23;;;10.55;;
36457;SDS011;22480;50.546;12.292;2023-02-20T05:46:39;17.25;;;10.65;;
36457;SDS011;22480;50.546;12.292;2023-02-20T05:49:06;20.45;;;12.07;;
36457;SDS011;22480;50.546;12.292;2023-02-20T05:51:32;16.35;;;10.40;;
36457;SDS011;22480;50.546;12.292;2023-02-20T05:53:58;16.60;;;10.75;;
36457;SDS011;22480;50.546;12.292;2023-02-20T05:56:23;18.70;;;11.75;;
36457;SDS011;22480;50.546;12.292;2023-02-20T05:58:49;17.40;;;11.43;;
36457;SDS011;22480;50.546;12.292;2023-02-20T06:01:22;17.85;;;11.40;;
36457;SDS011;22480;50.546;12.292;2023-02-20T06:03:53;18.35;;;11.93;;
36457;SDS011;22480;50.546;12.292;2023-02-20T06:06:19;19.10;;;12.00;;
36457;SDS011;22480;50.546;12.292;2023-02-20T06:08:46;19.85;;;12.43;;
36457;SDS011;22480;50.546;12.292;2023-02-20T06:11:12;19.75;;;12.60;;
36457;SDS011;22480;50.546;12.292;2023-02-20T06:13:43;19.85;;;12.52;;
36457;SDS011;22480;50.546;12.292;2023-02-20T06:16:10;21.90;;;13.13;;
36457;SDS011;22480;50.546;12.292;2023-02-20T06:18:39;23.30;;;12.65;;
36457;SDS011;22480;50.546;12.292;2023-02-20T06:23:33;19.17;;;11.02;;
36457;SDS011;22480;50.546;12.292;2023-02-20T06:25:59;21.33;;;12.02;;
36457;SDS011;22480;50.546;12.292;2023-02-20T06:28:25;19.48;;;11.88;;
36457;SDS011;22480;50.546;12.292;2023-02-20T06:30:51;19.52;;;12.50;;
36457;SDS011;22480;50.546;12.292;2023-02-20T06:33:17;19.80;;;12.18;;
36457;SDS011;22480;50.546;12.292;2023-02-20T06:35:42;18.10;;;11.50;;
36457;SDS011;22480;50.546;12.292;2023-02-20T06:38:08;16.88;;;10.90;;
36457;SDS011;22480;50.546;12.292;2023-02-20T06:40:34;16.20;;;10.85;;
36457;SDS011;22480;50.546;12.292;2023-02-20T06:42:59;18.77;;;12.10;;
36457;SDS011;22480;50.546;12.292;2023-02-20T06:45:25;19.35;;;12.93;;
36457;SDS011;22480;50.546;12.292;2023-02-20T06:47:51;19.10;;;12.20;;
36457;SDS011;22480;50.546;12.292;2023-02-20T06:50:16;16.70;;;10.73;;
36457;SDS011;22480;50.546;12.292;2023-02-20T06:52:42;14.88;;;10.13;;
36457;SDS011;22480;50.546;12.292;2023-02-20T06:55:08;16.30;;;10.98;;
36457;SDS011;22480;50.546;12.292;2023-02-20T06:57:34;14.70;;;9.80;;
36457;SDS011;22480;50.546;12.292;2023-02-20T06:59:59;16.38;;;10.02;;
36457;SDS011;22480;50.546;12.292;2023-02-20T07:02:25;17.00;;;9.05;;
36457;SDS011;22480;50.546;12.292;2023-02-20T07:04:51;12.52;;;8.38;;
36457;SDS011;22480;50.546;12.292;2023-02-20T07:07:16;11.07;;;7.88;;
36457;SDS011;22480;50.546;12.292;2023-02-20T07:09:42;13.25;;;9.45;;
36457;SDS011;22480;50.546;12.292;2023-02-20T07:12:08;12.38;;;7.95;;
36457;SDS011;22480;50.546;12.292;2023-02-20T07:14:33;12.75;;;7.80;;
36457;SDS011;22480;50.546;12.292;2023-02-20T07:16:59;13.70;;;7.72;;
36457;SDS011;22480;50.546;12.292;2023-02-20T07:19:25;12.18;;;8.20;;
36457;SDS011;22480;50.546;12.292;2023-02-20T07:21:50;12.85;;;8.30;;
36457;SDS011;22480;50.546;12.292;2023-02-20T07:24:16;17.42;;;10.25;;
36457;SDS011;22480;50.546;12.292;2023-02-20T07:26:42;19.35;;;10.30;;
36457;SDS011;22480;50.546;12.292;2023-02-20T07:29:08;15.93;;;9.18;;
36457;SDS011;22480;50.546;12.292;2023-02-20T07:31:36;14.30;;;8.73;;
36457;SDS011;22480;50.546;12.292;2023-02-20T07:34:03;15.18;;;9.25;;
36457;SDS011;22480;50.546;12.292;2023-02-20T07:36:34;13.40;;;8.88;;
36457;SDS011;22480;50.546;12.292;2023-02-20T07:39:00;21.85;;;12.35;;
36457;SDS011;22480;50.546;12.292;2023-02-20T07:41:28;13.88;;;8.90;;
36457;SDS011;22480;50.546;12.292;2023-02-20T07:43:56;12.55;;;7.63;;
36457;SDS011;22480;50.546;12.292;2023-02-20T07:46:22;12.55;;;8.10;;
36457;SDS011;22480;50.546;12.292;2023-02-20T07:48:48;13.00;;;8.75;;
36457;SDS011;22480;50.546;12.292;2023-02-20T07:51:14;13.13;;;8.75;;
36457;SDS011;22480;50.546;12.292;2023-02-20T07:53:40;10.77;;;7.60;;
36457;SDS011;22480;50.546;12.292;2023-02-20T07:56:12;12.23;;;7.88;;
36457;SDS011;22480;50.546;12.292;2023-02-20T07:58:38;10.82;;;7.60;;
36457;SDS011;22480;50.546;12.292;2023-02-20T08:01:04;10.68;;;7.43;;
36457;SDS011;22480;50.546;12.292;2023-02-20T08:03:29;12.65;;;8.23;;
36457;SDS011;22480;50.546;12.292;2023-02-20T08:05:55;10.73;;;7.28;;
36457;SDS011;22480;50.546;12.292;2023-02-20T08:08:21;10.25;;;6.88;;
36457;SDS011;22480;50.546;12.292;2023-02-20T08:10:48;12.18;;;7.90;;
36457;SDS011;22480;50.546;12.292;2023-02-20T08:13:15;11.43;;;8.00;;
36457;SDS011;22480;50.546;12.292;2023-02-20T08:15:41;13.13;;;8.15;;
36457;SDS011;22480;50.546;12.292;2023-02-20T08:18:08;10.05;;;7.18;;
36457;SDS011;22480;50.546;12.292;2023-02-20T08:20:35;8.55;;;6.93;;
36457;SDS011;22480;50.546;12.292;2023-02-20T08:23:01;11.02;;;6.82;;
36457;SDS011;22480;50.546;12.292;2023-02-20T08:25:29;9.55;;;7.30;;
36457;SDS011;22480;50.546;12.292;2023-02-20T08:27:56;11.40;;;6.70;;
36457;SDS011;22480;50.546;12.292;2023-02-20T08:30:23;9.43;;;6.50;;
36457;SDS011;22480;50.546;12.292;2023-02-20T08:32:51;11.05;;;7.30;;
36457;SDS011;22480;50.546;12.292;2023-02-20T08:35:17;10.98;;;7.80;;
36457;SDS011;22480;50.546;12.292;2023-02-20T08:37:44;7.95;;;6.32;;
36457;SDS011;22480;50.546;12.292;2023-02-20T08:40:10;13.35;;;7.32;;
36457;SDS011;22480;50.546;12.292;2023-02-20T08:42:36;13.73;;;7.00;;
36457;SDS011;22480;50.546;12.292;2023-02-20T08:45:02;8.38;;;5.72;;
36457;SDS011;22480;50.546;12.292;2023-02-20T08:47:29;15.02;;;10.18;;
36457;SDS011;22480;50.546;12.292;2023-02-20T08:49:55;9.48;;;6.63;;
36457;SDS011;22480;50.546;12.292;2023-02-20T08:52:20;12.18;;;8.25;;
36457;SDS011;22480;50.546;12.292;2023-02-20T08:54:46;11.50;;;5.65;;
36457;SDS011;22480;50.546;12.292;2023-02-20T08:57:13;12.95;;;6.78;;
36457;SDS011;22480;50.546;12.292;2023-02-20T08:59:39;11.32;;;6.30;;
36457;SDS011;22480;50.546;12.292;2023-02-20T09:02:05;10.85;;;5.57;;
36457;SDS011;22480;50.546;12.292;2023-02-20T09:04:33;8.98;;;5.88;;
36457;SDS011;22480;50.546;12.292;2023-02-20T09:06:58;7.40;;;4.32;;
36457;SDS011;22480;50.546;12.292;2023-02-20T09:09:24;7.60;;;4.60;;
36457;SDS011;22480;50.546;12.292;2023-02-20T09:11:50;12.07;;;6.43;;
36457;SDS011;22480;50.546;12.292;2023-02-20T09:14:15;15.43;;;7.00;;
36457;SDS011;22480;50.546;12.292;2023-02-20T09:16:41;13.65;;;6.65;;
36457;SDS011;22480;50.546;12.292;2023-02-20T09:19:07;17.45;;;7.97;;
36457;SDS011;22480;50.546;12.292;2023-02-20T09:21:34;18.50;;;8.30;;
36457;SDS011;22480;50.546;12.292;2023-02-20T09:23:59;12.77;;;6.15;;
36457;SDS011;22480;50.546;12.292;2023-02-20T09:26:26;14.80;;;7.10;;
36457;SDS011;22480;50.546;12.292;2023-02-20T09:28:51;10.32;;;6.45;;
36457;SDS011;22480;50.546;12.292;2023-02-20T09:31:17;12.07;;;6.75;;
36457;SDS011;22480;50.546;12.292;2023-02-20T09:33:43;9.88;;;5.47;;
36457;SDS011;22480;50.546;12.292;2023-02-20T09:36:10;7.75;;;4.53;;
36457;SDS011;22480;50.546;12.292;2023-02-20T09:38:36;9.75;;;4.68;;
36457;SDS011;22480;50.546;12.292;2023-02-20T09:41:01;17.25;;;7.15;;
36457;SDS011;22480;50.546;12.292;2023-02-20T09:44:11;17.50;;;7.25;;
36457;SDS011;22480;50.546;12.292;2023-02-20T09:46:25;13.70;;;5.85;;
36457;SDS011;22480;50.546;12.292;2023-02-20T09:51:23;15.93;;;5.88;;
36457;SDS011;22480;50.546;12.292;2023-02-20T09:56:21;13.43;;;5.45;;
36457;SDS011;22480;50.546;12.292;2023-02-20T09:59:02;4.80;;;2.72;;
36457;SDS011;22480;50.546;12.292;2023-02-20T10:01:33;9.35;;;4.22;;
36457;SDS011;22480;50.546;12.292;2023-02-20T10:04:12;7.15;;;3.03;;
36457;SDS011;22480;50.546;12.292;2023-02-20T10:06:41;9.88;;;4.47;;
36457;SDS011;22480;50.546;12.292;2023-02-20T10:09:10;7.32;;;3.28;;
36457;SDS011;22480;50.546;12.292;2023-02-20T10:11:41;6.70;;;3.65;;
36457;SDS011;22480;50.546;12.292;2023-02-20T10:14:18;4.43;;;2.90;;
36457;SDS011;22480;50.546;12.292;2023-02-20T10:17:04;6.70;;;3.00;;
36457;SDS011;22480;50.546;12.292;2023-02-20T10:22:38;5.00;;;2.85;;
36457;SDS011;22480;50.546;12.292;2023-02-20T10:25:15;7.40;;;3.80;;
36457;SDS011;22480;50.546;12.292;2023-02-20T10:27:55;8.23;;;4.53;;
36457;SDS011;22480;50.546;12.292;2023-02-20T10:35:52;4.50;;;3.05;;
36457;SDS011;22480;50.546;12.292;2023-02-20T10:38:55;6.40;;;3.28;;
36457;SDS011;22480;50.546;12.292;2023-02-20T10:41:28;6.32;;;2.92;;
36457;SDS011;22480;50.546;12.292;2023-02-20T10:44:15;4.32;;;2.42;;
36457;SDS011;22480;50.546;12.292;2023-02-20T10:46:55;3.72;;;2.60;;
36457;SDS011;22480;50.546;12.292;2023-02-20T10:49:43;5.63;;;2.30;;
36457;SDS011;22480;50.546;12.292;2023-02-20T10:52:19;3.42;;;2.35;;
36457;SDS011;22480;50.546;12.292;2023-02-20T10:55:04;4.00;;;2.40;;
36457;SDS011;22480;50.546;12.292;2023-02-20T10:57:40;5.30;;;3.03;;
36457;SDS011;22480;50.546;12.292;2023-02-20T11:00:12;5.38;;;2.75;;
36457;SDS011;22480;50.546;12.292;2023-02-20T11:02:45;6.72;;;3.33;;
36457;SDS011;22480;50.546;12.292;2023-02-20T11:05:18;5.43;;;2.80;;
36457;SDS011;22480;50.546;12.292;2023-02-20T11:07:49;5.30;;;2.25;;
36457;SDS011;22480;50.546;12.292;2023-02-20T11:10:15;3.03;;;2.00;;
36457;SDS011;22480;50.546;12.292;2023-02-20T11:12:42;5.90;;;2.38;;
36457;SDS011;22480;50.546;12.292;2023-02-20T11:15:19;3.30;;;1.92;;
36457;SDS011;22480;50.546;12.292;2023-02-20T11:17:51;4.03;;;2.25;;
36457;SDS011;22480;50.546;12.292;2023-02-20T11:22:56;3.80;;;2.40;;
36457;SDS011;22480;50.546;12.292;2023-02-20T11:25:29;3.90;;;2.03;;
36457;SDS011;22480;50.546;12.292;2023-02-20T11:28:05;3.17;;;1.70;;
36457;SDS011;22480;50.546;12.292;2023-02-20T11:30:43;6.38;;;2.45;;
36457;SDS011;22480;50.546;12.292;2023-02-20T11:33:20;5.82;;;2.55;;
36457;SDS011;22480;50.546;12.292;2023-02-20T11:35:51;5.30;;;3.03;;
36457;SDS011;22480;50.546;12.292;2023-02-20T11:38:33;6.60;;;3.75;;
36457;SDS011;22480;50.546;12.292;2023-02-20T11:43:33;3.88;;;1.92;;
36457;SDS011;22480;50.546;12.292;2023-02-20T11:46:18;5.03;;;2.35;;
36457;SDS011;22480;50.546;12.292;2023-02-20T11:51:30;3.13;;;2.13;;
36457;SDS011;22480;50.546;12.292;2023-02-20T11:54:14;2.70;;;2.10;;
36457;SDS011;22480;50.546;12.292;2023-02-20T11:59:27;3.83;;;2.05;;
36457;SDS011;22480;50.546;12.292;2023-02-20T12:04:59;2.15;;;1.58;;
36457;SDS011;22480;50.546;12.292;2023-02-20T12:07:26;3.95;;;2.08;;
36457;SDS011;22480;50.546;12.292;2023-02-20T12:09:58;3.13;;;1.80;;
36457;SDS011;22480;50.546;12.292;2023-02-20T12:12:46;4.47;;;2.45;;
36457;SDS011;22480;50.546;12.292;2023-02-20T12:15:17;4.38;;;1.90;;
36457;SDS011;22480;50.546;12.292;2023-02-20T12:20:16;2.95;;;1.80;;
36457;SDS011;22480;50.546;12.292;2023-02-20T12:28:14;3.28;;;1.88;;
36457;SDS011;22480;50.546;12.292;2023-02-20T12:38:56;2.50;;;1.65;;
36457;SDS011;22480;50.546;12.292;2023-02-20T12:41:47;2.67;;;1.83;;
36457;SDS011;22480;50.546;12.292;2023-02-20T12:44:20;4.43;;;1.70;;
36457;SDS011;22480;50.546;12.292;2023-02-20T12:47:21;2.47;;;1.30;;
36457;SDS011;22480;50.546;12.292;2023-02-20T13:05:38;2.85;;;1.20;;
36457;SDS011;22480;50.546;12.292;2023-02-20T13:08:08;3.92;;;1.42;;
36457;SDS011;22480;50.546;12.292;2023-02-20T13:10:47;2.67;;;1.23;;
36457;SDS011;22480;50.546;12.292;2023-02-20T13:13:21;4.97;;;1.85;;
36457;SDS011;22480;50.546;12.292;2023-02-20T13:21:22;3.80;;;1.60;;
36457;SDS011;22480;50.546;12.292;2023-02-20T13:23:52;4.18;;;1.30;;
36457;SDS011;22480;50.546;12.292;2023-02-20T13:27:01;4.68;;;1.80;;
36457;SDS011;22480;50.546;12.292;2023-02-20T13:29:56;5.95;;;1.58;;
36457;SDS011;22480;50.546;12.292;2023-02-20T13:32:41;1.80;;;1.33;;
36457;SDS011;22480;50.546;12.292;2023-02-20T13:38:10;6.90;;;2.03;;
36457;SDS011;22480;50.546;12.292;2023-02-20T13:41:22;3.97;;;1.85;;
36457;SDS011;22480;50.546;12.292;2023-02-20T13:43:28;3.38;;;1.52;;
36457;SDS011;22480;50.546;12.292;2023-02-20T13:46:07;6.28;;;2.17;;
36457;SDS011;22480;50.546;12.292;2023-02-20T13:56:19;3.08;;;1.30;;
36457;SDS011;22480;50.546;12.292;2023-02-20T13:58:50;4.80;;;1.60;;
36457;SDS011;22480;50.546;12.292;2023-02-20T14:01:18;3.55;;;1.40;;
36457;SDS011;22480;50.546;12.292;2023-02-20T14:03:44;4.32;;;1.52;;
36457;SDS011;22480;50.546;12.292;2023-02-20T14:08:41;4.22;;;2.60;;
36457;SDS011;22480;50.546;12.292;2023-02-20T14:13:57;2.67;;;1.30;;
36457;SDS011;22480;50.546;12.292;2023-02-20T14:18:55;1.98;;;1.45;;
36457;SDS011;22480;50.546;12.292;2023-02-20T14:21:42;3.85;;;1.90;;
36457;SDS011;22480;50.546;12.292;2023-02-20T14:26:44;2.67;;;1.67;;
36457;SDS011;22480;50.546;12.292;2023-02-20T14:29:20;3.63;;;2.10;;
36457;SDS011;22480;50.546;12.292;2023-02-20T14:31:51;3.70;;;2.20;;
36457;SDS011;22480;50.546;12.292;2023-02-20T14:34:28;3.95;;;1.90;;
36457;SDS011;22480;50.546;12.292;2023-02-20T14:37:15;3.13;;;1.98;;
36457;SDS011;22480;50.546;12.292;2023-02-20T14:40:08;2.72;;;1.33;;
36457;SDS011;22480;50.546;12.292;2023-02-20T14:42:46;3.40;;;1.65;;
36457;SDS011;22480;50.546;12.292;2023-02-20T14:45:20;6.97;;;3.42;;
36457;SDS011;22480;50.546;12.292;2023-02-20T14:55:42;3.85;;;1.60;;
36457;SDS011;22480;50.546;12.292;2023-02-20T14:58:18;6.65;;;2.45;;
36457;SDS011;22480;50.546;12.292;2023-02-20T15:00:47;8.95;;;3.42;;
36457;SDS011;22480;50.546;12.292;2023-02-20T15:03:20;6.43;;;2.92;;
36457;SDS011;22480;50.546;12.292;2023-02-20T15:05:48;5.13;;;2.35;;
36457;SDS011;22480;50.546;12.292;2023-02-20T15:08:19;3.83;;;1.55;;
36457;SDS011;22480;50.546;12.292;2023-02-20T15:10:49;4.47;;;2.33;;
36457;SDS011;22480;50.546;12.292;2023-02-20T15:13:28;5.05;;;2.20;;
36457;SDS011;22480;50.546;12.292;2023-02-20T15:16:03;6.45;;;2.42;;
36457;SDS011;22480;50.546;12.292;2023-02-20T15:18:39;4.53;;;2.10;;
36457;SDS011;22480;50.546;12.292;2023-02-20T15:21:07;10.18;;;2.80;;
36457;SDS011;22480;50.546;12.292;2023-02-20T15:23:35;4.38;;;2.47;;
36457;SDS011;22480;50.546;12.292;2023-02-20T15:29:08;4.25;;;2.03;;
36457;SDS011;22480;50.546;12.292;2023-02-20T15:31:55;7.30;;;3.38;;
36457;SDS011;22480;50.546;12.292;2023-02-20T15:34:28;5.73;;;2.60;;
36457;SDS011;22480;50.546;12.292;2023-02-20T15:37:01;4.68;;;2.28;;
36457;SDS011;22480;50.546;12.292;2023-02-20T15:39:41;3.28;;;1.40;;
36457;SDS011;22480;50.546;12.292;2023-02-20T15:42:09;2.92;;;1.80;;
36457;SDS011;22480;50.546;12.292;2023-02-20T15:44:35;5.60;;;1.90;;
36457;SDS011;22480;50.546;12.292;2023-02-20T15:47:01;4.38;;;1.65;;
36457;SDS011;22480;50.546;12.292;2023-02-20T15:49:27;3.30;;;1.90;;
36457;SDS011;22480;50.546;12.292;2023-02-20T15:51:52;4.68;;;2.47;;
36457;SDS011;22480;50.546;12.292;2023-02-20T15:54:18;3.85;;;1.80;;
36457;SDS011;22480;50.546;12.292;2023-02-20T15:56:44;5.97;;;2.08;;
36457;SDS011;22480;50.546;12.292;2023-02-20T15:59:11;4.03;;;2.10;;
36457;SDS011;22480;50.546;12.292;2023-02-20T16:01:38;3.90;;;2.10;;
36457;SDS011;22480;50.546;12.292;2023-02-20T16:04:05;2.20;;;1.48;;
36457;SDS011;22480;50.546;12.292;2023-02-20T16:06:31;5.15;;;1.90;;
36457;SDS011;22480;50.546;12.292;2023-02-20T16:08:57;4.63;;;2.60;;
36457;SDS011;22480;50.546;12.292;2023-02-20T16:11:24;3.33;;;2.00;;
36457;SDS011;22480;50.546;12.292;2023-02-20T16:13:54;4.35;;;2.05;;
36457;SDS011;22480;50.546;12.292;2023-02-20T16:16:29;5.90;;;2.40;;
36457;SDS011;22480;50.546;12.292;2023-02-20T16:18:59;3.58;;;2.20;;
36457;SDS011;22480;50.546;12.292;2023-02-20T16:21:25;5.30;;;2.28;;
36457;SDS011;22480;50.546;12.292;2023-02-20T16:23:53;3.60;;;2.30;;
36457;SDS011;22480;50.546;12.292;2023-02-20T16:26:20;3.28;;;1.90;;
36457;SDS011;22480;50.546;12.292;2023-02-20T16:28:57;3.90;;;1.83;;
36457;SDS011;22480;50.546;12.292;2023-02-20T16:34:19;3.95;;;2.10;;
36457;SDS011;22480;50.546;12.292;2023-02-20T16:36:52;5.95;;;1.95;;
36457;SDS011;22480;50.546;12.292;2023-02-20T16:39:18;3.13;;;2.00;;
36457;SDS011;22480;50.546;12.292;2023-02-20T16:41:45;4.40;;;2.20;;
36457;SDS011;22480;50.546;12.292;2023-02-20T16:44:11;5.75;;;3.80;;
36457;SDS011;22480;50.546;12.292;2023-02-20T16:46:50;6.93;;;3.03;;
36457;SDS011;22480;50.546;12.292;2023-02-20T16:49:16;6.35;;;3.78;;
36457;SDS011;22480;50.546;12.292;2023-02-20T16:51:42;10.20;;;4.90;;